Time;durP1;ratioP1;P1;durP2;ratioP2;P2;SDS_P1;SDS_P2;PMS_P1;PMS_P2;Temp;Humidity;BMP_temperature;BMP_pressure;BME280_temperature;BME280_humidity;BME280_pressure;Samples;Min_cycle;Max_cycle;Signal;HPM_P1;HPM_P2
2022/03/21 00:01:00;;;;;;;45.67;30.87;;;;;;;;;;5000668;28;21138;-35
2022/03/21 00:03:30;;;;;;;48.87;33.37;;;;;;;;;;5004121;28;20426;-34
2022/03/21 00:05:57;;;;;;;53.37;33.50;;;;;;;;;;4998552;28;21158;-34
2022/03/21 00:08:24;;;;;;;51.80;35.20;;;;;;;;;;5000252;28;20434;-34
2022/03/21 00:10:51;;;;;;;54.93;35.33;;;;;;;;;;5000849;28;20427;-34
2022/03/21 00:13:17;;;;;;;55.07;35.43;;;;;;;;;;5002968;28;20956;-35
2022/03/21 00:15:44;;;;;;;55.77;33.67;;;;;;;;;;5004959;28;20864;-34
2022/03/21 00:18:13;;;;;;;50.67;34.30;;;;;;;;;;5002248;28;20776;-35
2022/03/21 00:20:40;;;;;;;50.20;33.87;;;;;;;;;;5002284;28;20581;-34
2022/03/21 00:23:06;;;;;;;50.43;33.90;;;;;;;;;;5005953;28;20699;-35
2022/03/21 00:25:32;;;;;;;49.47;32.73;;;;;;;;;;5002863;28;20577;-34
2022/03/21 00:27:58;;;;;;;52.37;33.90;;;;;;;;;;5000976;28;20427;-35
2022/03/21 00:30:24;;;;;;;49.63;32.07;;;;;;;;;;5003371;28;20893;-34
2022/03/21 00:32:51;;;;;;;50.80;32.63;;;;;;;;;;5005755;28;20832;-34
2022/03/21 00:35:17;;;;;;;49.67;32.57;;;;;;;;;;5003885;28;20981;-35
2022/03/21 00:37:44;;;;;;;45.63;31.17;;;;;;;;;;5001238;28;20840;-34
2022/03/21 00:40:10;;;;;;;46.60;31.47;;;;;;;;;;5003155;28;20433;-34
2022/03/21 00:42:40;;;;;;;46.77;30.50;;;;;;;;;;5004431;28;20931;-35
2022/03/21 00:45:07;;;;;;;54.10;31.87;;;;;;;;;;5003079;28;20429;-34
2022/03/21 00:47:33;;;;;;;48.00;30.83;;;;;;;;;;4999249;28;20752;-34
2022/03/21 00:50:00;;;;;;;46.90;30.33;;;;;;;;;;5003110;28;20774;-35
2022/03/21 00:52:26;;;;;;;46.53;31.63;;;;;;;;;;5005213;28;20513;-35
2022/03/21 00:54:52;;;;;;;47.57;30.67;;;;;;;;;;5004200;28;20422;-35
2022/03/21 00:57:18;;;;;;;45.20;30.73;;;;;;;;;;5001978;28;20727;-34
2022/03/21 00:59:44;;;;;;;44.47;29.10;;;;;;;;;;5002427;28;20427;-34
2022/03/21 01:02:12;;;;;;;44.00;28.73;;;;;;;;;;5005586;28;21213;-35
2022/03/21 01:04:38;;;;;;;46.73;29.10;;;;;;;;;;5007006;28;20609;-35
2022/03/21 01:07:04;;;;;;;44.57;29.77;;;;;;;;;;5001755;28;20496;-34
2022/03/21 01:09:30;;;;;;;45.40;30.47;;;;;;;;;;5004455;28;20452;-35
2022/03/21 01:11:56;;;;;;;48.70;29.83;;;;;;;;;;5005380;28;20430;-35
2022/03/21 01:14:22;;;;;;;41.40;28.33;;;;;;;;;;5004682;28;20730;-35
2022/03/21 01:16:50;;;;;;;39.77;25.83;;;;;;;;;;5004355;28;20740;-35
2022/03/21 01:19:16;;;;;;;39.63;27.17;;;;;;;;;;5003195;28;20427;-35
2022/03/21 01:21:42;;;;;;;43.73;28.37;;;;;;;;;;4984819;28;21452;-35
2022/03/21 01:24:08;;;;;;;41.90;28.07;;;;;;;;;;5007215;28;20426;-35
2022/03/21 01:26:34;;;;;;;43.07;27.87;;;;;;;;;;5005428;28;20610;-35
2022/03/21 01:29:00;;;;;;;44.33;28.23;;;;;;;;;;5006943;28;20469;-35
2022/03/21 01:31:26;;;;;;;43.47;27.57;;;;;;;;;;5008359;28;20857;-35
2022/03/21 01:33:55;;;;;;;42.33;26.37;;;;;;;;;;5006800;28;20441;-35
2022/03/21 01:36:22;;;;;;;42.60;26.13;;;;;;;;;;4999976;28;21328;-35
2022/03/21 01:38:48;;;;;;;42.63;26.60;;;;;;;;;;5001367;28;20987;-35
2022/03/21 01:41:15;;;;;;;40.33;25.97;;;;;;;;;;5004558;28;20994;-35
2022/03/21 01:43:59;;;;;;;40.47;25.87;;;;;;;;;;5007414;28;20957;-35
2022/03/21 01:46:27;;;;;;;41.23;25.67;;;;;;;;;;5004014;28;20767;-35
2022/03/21 01:48:53;;;;;;;36.60;24.87;;;;;;;;;;5005395;28;20797;-34
2022/03/21 01:51:20;;;;;;;38.57;25.73;;;;;;;;;;5008739;28;20942;-35
2022/03/21 01:56:31;;;;;;;40.20;25.67;;;;;;;;;;5002688;28;20453;-35
2022/03/21 01:58:57;;;;;;;41.80;25.40;;;;;;;;;;5003279;28;20784;-35
2022/03/21 02:01:23;;;;;;;37.63;24.30;;;;;;;;;;5008044;28;20577;-35
2022/03/21 02:03:50;;;;;;;37.50;25.13;;;;;;;;;;5006155;28;20485;-35
2022/03/21 02:06:16;;;;;;;39.60;26.40;;;;;;;;;;5003544;28;20767;-35
2022/03/21 02:08:43;;;;;;;41.23;26.03;;;;;;;;;;5002388;28;20874;-35
2022/03/21 02:11:09;;;;;;;42.77;26.07;;;;;;;;;;5008064;28;20899;-35
2022/03/21 02:13:35;;;;;;;43.77;26.57;;;;;;;;;;5006617;28;20603;-35
2022/03/21 02:16:01;;;;;;;42.60;27.93;;;;;;;;;;5005811;28;20564;-35
2022/03/21 02:18:29;;;;;;;42.97;27.67;;;;;;;;;;5005284;28;20954;-35
2022/03/21 02:20:56;;;;;;;47.57;29.17;;;;;;;;;;5007989;28;20777;-35
2022/03/21 02:23:41;;;;;;;41.87;27.63;;;;;;;;;;5002183;28;20426;-35
2022/03/21 02:26:12;;;;;;;40.87;26.60;;;;;;;;;;5007015;28;20961;-35
2022/03/21 02:28:38;;;;;;;45.63;27.83;;;;;;;;;;5005290;28;20700;-35
2022/03/21 02:31:05;;;;;;;43.00;27.07;;;;;;;;;;5008158;28;20441;-35
2022/03/21 02:33:31;;;;;;;39.93;26.20;;;;;;;;;;5001400;28;21274;-35
2022/03/21 02:35:58;;;;;;;42.63;26.47;;;;;;;;;;5006369;28;21023;-35
2022/03/21 02:38:25;;;;;;;39.63;26.40;;;;;;;;;;5007009;28;20833;-35
2022/03/21 02:40:52;;;;;;;39.00;25.23;;;;;;;;;;5004254;28;20422;-37
2022/03/21 02:43:18;;;;;;;42.60;27.03;;;;;;;;;;5003616;28;21140;-35
2022/03/21 02:45:44;;;;;;;41.57;26.40;;;;;;;;;;5005028;28;20512;-35
2022/03/21 02:48:14;;;;;;;40.07;25.60;;;;;;;;;;5005378;28;20427;-35
2022/03/21 02:50:53;;;;;;;37.47;24.63;;;;;;;;;;5002862;28;20537;-35
2022/03/21 02:53:21;;;;;;;43.03;25.87;;;;;;;;;;5002969;28;20422;-34
2022/03/21 02:55:47;;;;;;;44.67;27.63;;;;;;;;;;5005295;28;21282;-35
2022/03/21 02:58:13;;;;;;;40.10;26.50;;;;;;;;;;5003959;28;21079;-35
2022/03/21 03:00:39;;;;;;;43.93;28.37;;;;;;;;;;4987190;28;20729;-35
2022/03/21 03:03:05;;;;;;;44.57;27.97;;;;;;;;;;5003677;28;20422;-35
2022/03/21 03:05:31;;;;;;;45.47;29.73;;;;;;;;;;5002881;28;20768;-34
2022/03/21 03:07:57;;;;;;;50.53;30.00;;;;;;;;;;5004343;28;21097;-35
2022/03/21 03:10:23;;;;;;;44.43;29.23;;;;;;;;;;5002903;28;20784;-35
2022/03/21 03:12:49;;;;;;;50.63;32.27;;;;;;;;;;5006333;28;20430;-35
2022/03/21 03:15:15;;;;;;;51.80;32.77;;;;;;;;;;5003851;28;20460;-35
2022/03/21 03:17:41;;;;;;;51.60;32.77;;;;;;;;;;5007852;28;20659;-35
2022/03/21 03:20:08;;;;;;;52.20;33.47;;;;;;;;;;5004784;28;20855;-35
2022/03/21 03:22:34;;;;;;;49.33;30.30;;;;;;;;;;5001792;28;20798;-35
2022/03/21 03:25:02;;;;;;;50.47;32.40;;;;;;;;;;5005651;28;20939;-35
2022/03/21 03:27:28;;;;;;;47.20;31.47;;;;;;;;;;5005711;28;20835;-35
2022/03/21 03:29:55;;;;;;;47.03;30.07;;;;;;;;;;5003505;28;20763;-35
2022/03/21 03:32:21;;;;;;;46.80;30.30;;;;;;;;;;5003993;28;20453;-35
2022/03/21 03:34:48;;;;;;;44.03;29.33;;;;;;;;;;5006964;28;20452;-35
2022/03/21 03:37:14;;;;;;;50.97;29.47;;;;;;;;;;5003196;28;20477;-35
2022/03/21 03:39:40;;;;;;;43.60;27.67;;;;;;;;;;5003110;28;20425;-35
2022/03/21 03:42:06;;;;;;;46.73;28.63;;;;;;;;;;5000933;28;20437;-35
2022/03/21 03:44:32;;;;;;;47.10;29.37;;;;;;;;;;5002844;28;21302;-35
2022/03/21 03:46:58;;;;;;;46.67;29.10;;;;;;;;;;5004177;28;20822;-35
2022/03/21 03:49:25;;;;;;;43.97;28.90;;;;;;;;;;4988203;28;20449;-35
2022/03/21 03:51:51;;;;;;;51.10;30.23;;;;;;;;;;5001220;28;20819;-35
2022/03/21 03:54:17;;;;;;;45.90;29.53;;;;;;;;;;5005430;28;20851;-35
2022/03/21 03:56:43;;;;;;;47.17;28.53;;;;;;;;;;5005109;28;20448;-35
2022/03/21 03:59:09;;;;;;;49.10;30.97;;;;;;;;;;5004593;28;20426;-36
2022/03/21 04:01:37;;;;;;;49.13;30.13;;;;;;;;;;5004481;28;20505;-35
2022/03/21 04:04:03;;;;;;;48.50;31.00;;;;;;;;;;5002989;28;20931;-35
2022/03/21 04:06:29;;;;;;;52.20;31.83;;;;;;;;;;5005342;28;20610;-35
2022/03/21 04:08:55;;;;;;;49.63;31.07;;;;;;;;;;5000779;28;20462;-35
2022/03/21 04:11:22;;;;;;;56.47;34.37;;;;;;;;;;4999048;28;20576;-35
2022/03/21 04:13:48;;;;;;;54.57;33.57;;;;;;;;;;5002270;28;20946;-35
2022/03/21 04:16:14;;;;;;;51.87;32.63;;;;;;;;;;5005939;28;20550;-35
2022/03/21 04:18:40;;;;;;;54.90;33.97;;;;;;;;;;4986773;28;20945;-35
2022/03/21 04:21:06;;;;;;;54.27;32.60;;;;;;;;;;5003310;28;20545;-35
2022/03/21 04:23:32;;;;;;;53.23;33.03;;;;;;;;;;5004654;28;20826;-35
2022/03/21 04:25:59;;;;;;;56.40;34.73;;;;;;;;;;5005029;28;20550;-35
2022/03/21 04:28:25;;;;;;;51.57;31.83;;;;;;;;;;4999873;28;20795;-35
2022/03/21 04:30:51;;;;;;;51.60;32.87;;;;;;;;;;4983015;28;21001;-35
2022/03/21 04:33:17;;;;;;;52.17;30.67;;;;;;;;;;5004992;28;20886;-35
2022/03/21 04:35:44;;;;;;;50.40;32.17;;;;;;;;;;5004560;28;20499;-35
2022/03/21 04:38:14;;;;;;;53.10;32.23;;;;;;;;;;5000952;28;21085;-35
2022/03/21 04:40:41;;;;;;;53.93;31.53;;;;;;;;;;5002262;28;20841;-35
2022/03/21 04:43:08;;;;;;;50.63;30.67;;;;;;;;;;5004654;28;21065;-35
2022/03/21 04:45:34;;;;;;;42.80;28.63;;;;;;;;;;5002867;28;20648;-36
2022/03/21 04:48:00;;;;;;;50.00;31.07;;;;;;;;;;5000477;28;21396;-36
2022/03/21 04:50:27;;;;;;;55.30;33.23;;;;;;;;;;5005653;28;20799;-35
2022/03/21 04:52:53;;;;;;;49.80;30.73;;;;;;;;;;5003414;28;21286;-36
2022/03/21 04:55:19;;;;;;;47.03;30.53;;;;;;;;;;5001457;28;21044;-35
2022/03/21 04:57:45;;;;;;;47.50;29.93;;;;;;;;;;5010689;28;20816;-35
2022/03/21 05:00:13;;;;;;;55.87;31.50;;;;;;;;;;5008146;28;20526;-36
2022/03/21 05:02:39;;;;;;;55.03;32.93;;;;;;;;;;5006173;28;20633;-35
2022/03/21 05:05:05;;;;;;;48.77;30.67;;;;;;;;;;4988118;28;20870;-36
2022/03/21 05:07:32;;;;;;;52.63;31.77;;;;;;;;;;5007145;28;21208;-35
2022/03/21 05:09:58;;;;;;;45.73;30.97;;;;;;;;;;5006820;28;20433;-35
2022/03/21 05:12:24;;;;;;;54.80;32.83;;;;;;;;;;5001484;28;20450;-35
2022/03/21 05:14:50;;;;;;;58.17;32.97;;;;;;;;;;5006865;28;20721;-36
2022/03/21 05:17:17;;;;;;;49.20;31.83;;;;;;;;;;5004885;28;20784;-36
2022/03/21 05:19:44;;;;;;;57.67;33.47;;;;;;;;;;5003228;28;20997;-35
2022/03/21 05:22:10;;;;;;;51.87;32.53;;;;;;;;;;5004035;28;20613;-36
2022/03/21 05:35:52;;;;;;;59.03;35.10;;;;;;;;;;5002160;28;20502;-37
2022/03/21 05:35:55;;;;;;;55.57;35.00;;;;;;;;;;5005027;28;20426;-37
2022/03/21 05:38:28;;;;;;;56.07;34.30;;;;;;;;;;5001914;28;20472;-36
2022/03/21 05:41:00;;;;;;;60.20;35.90;;;;;;;;;;4999114;28;20847;-36
2022/03/21 05:43:26;;;;;;;58.27;33.90;;;;;;;;;;5008309;28;20411;-37
2022/03/21 05:45:53;;;;;;;54.67;32.77;;;;;;;;;;4989904;28;21061;-37
2022/03/21 05:51:05;;;;;;;52.27;32.83;;;;;;;;;;5006108;28;20889;-37
2022/03/21 05:53:31;;;;;;;58.83;33.87;;;;;;;;;;4989266;28;20433;-37
2022/03/21 05:56:00;;;;;;;57.37;33.50;;;;;;;;;;5006018;28;21017;-37
2022/03/21 05:58:26;;;;;;;53.33;32.63;;;;;;;;;;5004691;28;20489;-37
2022/03/21 06:00:52;;;;;;;54.83;33.40;;;;;;;;;;5004660;28;20915;-37
2022/03/21 06:03:18;;;;;;;53.20;33.37;;;;;;;;;;5004847;28;21085;-37
2022/03/21 06:05:45;;;;;;;57.07;33.63;;;;;;;;;;5001951;28;20453;-37
2022/03/21 06:08:11;;;;;;;50.80;32.70;;;;;;;;;;5003777;28;20532;-36
2022/03/21 06:10:38;;;;;;;56.30;34.40;;;;;;;;;;5002627;28;20434;-37
2022/03/21 06:13:08;;;;;;;54.27;33.67;;;;;;;;;;5002109;28;20640;-37
2022/03/21 06:15:35;;;;;;;55.97;33.20;;;;;;;;;;5003217;28;20478;-36
2022/03/21 06:18:02;;;;;;;58.83;35.20;;;;;;;;;;5000878;28;20449;-37
2022/03/21 06:20:28;;;;;;;53.10;33.83;;;;;;;;;;5005206;28;20514;-36
2022/03/21 06:22:55;;;;;;;55.23;34.63;;;;;;;;;;5004824;28;20454;-36
2022/03/21 06:25:21;;;;;;;57.33;33.83;;;;;;;;;;5003373;28;20902;-36
2022/03/21 06:27:48;;;;;;;55.53;32.53;;;;;;;;;;5004815;28;20994;-36
2022/03/21 06:30:15;;;;;;;53.13;32.03;;;;;;;;;;5003876;28;20422;-36
2022/03/21 06:32:41;;;;;;;51.97;31.23;;;;;;;;;;5002265;28;20580;-37
2022/03/21 06:35:10;;;;;;;52.27;30.47;;;;;;;;;;5001271;28;20433;-36
2022/03/21 06:37:37;;;;;;;54.70;31.80;;;;;;;;;;5007466;28;20451;-36
2022/03/21 06:40:04;;;;;;;54.03;30.10;;;;;;;;;;5002894;28;20707;-36
2022/03/21 06:42:30;;;;;;;56.07;32.37;;;;;;;;;;5001428;28;20489;-36
2022/03/21 06:44:56;;;;;;;48.33;30.87;;;;;;;;;;4999655;28;20959;-36
2022/03/21 06:47:22;;;;;;;49.00;31.20;;;;;;;;;;5008333;28;20441;-35
2022/03/21 06:49:49;;;;;;;52.83;30.63;;;;;;;;;;5005064;28;20438;-37
2022/03/21 06:52:18;;;;;;;54.73;30.77;;;;;;;;;;5000075;28;20616;-37
2022/03/21 06:54:45;;;;;;;56.47;31.43;;;;;;;;;;4997662;28;20598;-37
2022/03/21 06:57:11;;;;;;;48.67;29.97;;;;;;;;;;5003159;28;20936;-37
2022/03/21 06:59:38;;;;;;;49.03;30.03;;;;;;;;;;5005376;28;20421;-37
2022/03/21 07:02:04;;;;;;;51.63;30.83;;;;;;;;;;4998802;28;21509;-35
2022/03/21 07:04:31;;;;;;;50.03;30.10;;;;;;;;;;5001234;28;20711;-36
2022/03/21 07:06:57;;;;;;;55.30;29.60;;;;;;;;;;5003322;28;21117;-36
2022/03/21 07:09:24;;;;;;;46.27;28.33;;;;;;;;;;5003374;28;20477;-36
2022/03/21 07:11:51;;;;;;;49.00;29.80;;;;;;;;;;5003121;28;21290;-37
2022/03/21 07:14:18;;;;;;;46.90;27.10;;;;;;;;;;4996964;28;20434;-37
2022/03/21 07:16:44;;;;;;;44.20;27.77;;;;;;;;;;4997498;28;20446;-37
2022/03/21 07:19:10;;;;;;;47.23;27.63;;;;;;;;;;5002792;28;20420;-36
2022/03/21 07:21:37;;;;;;;43.30;27.63;;;;;;;;;;5000783;28;20678;-36
2022/03/21 07:24:03;;;;;;;52.07;28.07;;;;;;;;;;5002157;28;20426;-37
2022/03/21 07:26:31;;;;;;;48.53;27.40;;;;;;;;;;4996267;28;20809;-36
2022/03/21 07:28:57;;;;;;;45.93;26.63;;;;;;;;;;4998808;28;21269;-37
2022/03/21 07:31:23;;;;;;;44.83;28.43;;;;;;;;;;5005950;28;20426;-36
2022/03/21 07:33:49;;;;;;;48.20;28.17;;;;;;;;;;5000198;28;20721;-37
2022/03/21 07:36:15;;;;;;;48.97;27.77;;;;;;;;;;4981247;28;20422;-36
2022/03/21 07:38:42;;;;;;;44.93;28.70;;;;;;;;;;5004884;28;20511;-37
2022/03/21 07:41:08;;;;;;;44.50;27.40;;;;;;;;;;5002789;28;20426;-37
2022/03/21 07:43:35;;;;;;;38.00;26.37;;;;;;;;;;5000626;28;20426;-37
2022/03/21 07:48:46;;;;;;;42.97;26.47;;;;;;;;;;5003996;28;20788;-37
2022/03/21 07:51:12;;;;;;;43.43;26.70;;;;;;;;;;5000148;28;20567;-37
2022/03/21 07:53:38;;;;;;;37.20;25.13;;;;;;;;;;4999456;28;20426;-37
2022/03/21 07:56:05;;;;;;;41.03;26.00;;;;;;;;;;4993448;28;20516;-37
2022/03/21 07:58:31;;;;;;;41.17;24.67;;;;;;;;;;4998975;28;20537;-37
2022/03/21 08:00:59;;;;;;;42.30;24.60;;;;;;;;;;4998774;28;21133;-37
2022/03/21 08:03:26;;;;;;;36.73;24.20;;;;;;;;;;4997167;28;20454;-37
2022/03/21 08:05:52;;;;;;;38.80;24.10;;;;;;;;;;4976717;28;20422;-37
2022/03/21 08:08:19;;;;;;;39.33;24.20;;;;;;;;;;4980085;28;20911;-37
2022/03/21 08:10:46;;;;;;;35.17;22.10;;;;;;;;;;4994399;28;20997;-37
2022/03/21 08:13:16;;;;;;;37.17;24.13;;;;;;;;;;4990469;28;20496;-36
2022/03/21 08:15:43;;;;;;;36.80;23.27;;;;;;;;;;4994906;28;20865;-37
2022/03/21 08:18:10;;;;;;;36.87;23.67;;;;;;;;;;4980315;28;21143;-37
2022/03/21 08:20:38;;;;;;;38.77;24.07;;;;;;;;;;4994260;28;20972;-37
2022/03/21 08:23:06;;;;;;;36.23;23.77;;;;;;;;;;4994246;28;20497;-37
2022/03/21 08:25:33;;;;;;;34.37;23.20;;;;;;;;;;4997975;28;20438;-37
2022/03/21 08:28:00;;;;;;;36.43;23.67;;;;;;;;;;4998765;28;21064;-37
2022/03/21 08:30:29;;;;;;;35.40;24.10;;;;;;;;;;4996397;28;21099;-37
2022/03/21 08:32:55;;;;;;;33.43;22.97;;;;;;;;;;4999465;28;20511;-37
2022/03/21 08:35:21;;;;;;;32.20;22.30;;;;;;;;;;5002940;28;20855;-36
2022/03/21 08:37:48;;;;;;;37.27;22.67;;;;;;;;;;5003582;28;21300;-36
2022/03/21 08:40:14;;;;;;;36.57;23.63;;;;;;;;;;5002262;28;20756;-36
2022/03/21 08:42:40;;;;;;;35.47;23.17;;;;;;;;;;4997950;28;20950;-36
2022/03/21 08:45:07;;;;;;;31.33;21.67;;;;;;;;;;5002567;28;20835;-36
2022/03/21 08:47:34;;;;;;;34.67;23.03;;;;;;;;;;5002008;28;20767;-36
2022/03/21 08:50:00;;;;;;;37.93;22.53;;;;;;;;;;4987195;28;20850;-36
2022/03/21 08:52:26;;;;;;;31.00;20.53;;;;;;;;;;4999400;28;20808;-37
2022/03/21 08:54:52;;;;;;;35.77;21.47;;;;;;;;;;5002251;28;20426;-37
2022/03/21 08:57:18;;;;;;;36.20;23.00;;;;;;;;;;5001384;28;20281;-38
2022/03/21 08:59:46;;;;;;;34.63;20.50;;;;;;;;;;5012140;28;20844;-37
2022/03/21 09:02:13;;;;;;;34.97;21.27;;;;;;;;;;5028010;28;20421;-37
2022/03/21 09:04:39;;;;;;;34.73;21.77;;;;;;;;;;5025686;28;20168;-37
2022/03/21 09:07:05;;;;;;;32.03;21.47;;;;;;;;;;5023459;28;20184;-37
2022/03/21 09:09:32;;;;;;;31.77;22.40;;;;;;;;;;5025895;28;20171;-37
2022/03/21 09:11:58;;;;;;;32.80;21.77;;;;;;;;;;5023206;28;20409;-37
2022/03/21 09:14:24;;;;;;;34.90;22.50;;;;;;;;;;5021093;28;20513;-38
2022/03/21 09:16:52;;;;;;;33.07;21.00;;;;;;;;;;5021390;28;20309;-37
2022/03/21 09:19:19;;;;;;;31.33;19.50;;;;;;;;;;5024745;28;21048;-37
2022/03/21 09:21:46;;;;;;;29.07;19.53;;;;;;;;;;5023275;28;20274;-38
2022/03/21 09:24:12;;;;;;;33.50;20.30;;;;;;;;;;5023030;28;21082;-37
2022/03/21 09:26:38;;;;;;;33.87;19.80;;;;;;;;;;5023046;28;20292;-36
2022/03/21 09:29:05;;;;;;;30.23;19.27;;;;;;;;;;5026610;28;20746;-36
2022/03/21 09:31:32;;;;;;;30.83;20.03;;;;;;;;;;5021540;28;20163;-36
2022/03/21 09:33:59;;;;;;;28.40;19.77;;;;;;;;;;5023592;28;21150;-37
2022/03/21 09:36:25;;;;;;;32.67;19.20;;;;;;;;;;5021984;28;20754;-36
2022/03/21 09:38:51;;;;;;;30.77;20.17;;;;;;;;;;5025724;28;20234;-36
2022/03/21 09:41:22;;;;;;;33.80;21.77;;;;;;;;;;5023780;28;20649;-36
2022/03/21 09:43:51;;;;;;;33.27;20.83;;;;;;;;;;5025021;28;20318;-36
2022/03/21 09:46:18;;;;;;;30.57;19.67;;;;;;;;;;5023454;28;20217;-37
2022/03/21 09:48:52;;;;;;;26.77;17.70;;;;;;;;;;5026507;28;20195;-36
2022/03/21 09:51:20;;;;;;;27.67;17.23;;;;;;;;;;5023346;28;20680;-36
2022/03/21 09:53:47;;;;;;;23.60;16.83;;;;;;;;;;5023777;28;20655;-36
2022/03/21 09:56:13;;;;;;;24.27;14.93;;;;;;;;;;5022276;28;20175;-36
2022/03/21 09:58:39;;;;;;;22.30;14.57;;;;;;;;;;5027656;28;20192;-37
2022/03/21 10:01:06;;;;;;;23.50;15.03;;;;;;;;;;5023801;28;20283;-36
2022/03/21 10:03:34;;;;;;;21.43;13.53;;;;;;;;;;5020623;28;20278;-36
2022/03/21 10:06:00;;;;;;;18.70;12.70;;;;;;;;;;5021066;28;20750;-36
2022/03/21 10:08:27;;;;;;;20.03;13.87;;;;;;;;;;5027262;28;20264;-37
2022/03/21 10:10:53;;;;;;;19.87;13.03;;;;;;;;;;5025458;28;20171;-36
2022/03/21 10:13:20;;;;;;;15.57;11.57;;;;;;;;;;5021965;28;20187;-36
2022/03/21 10:15:46;;;;;;;15.77;10.93;;;;;;;;;;5014906;28;20294;-37
2022/03/21 10:18:12;;;;;;;18.57;11.87;;;;;;;;;;5020569;28;20184;-36
2022/03/21 10:20:40;;;;;;;17.23;11.40;;;;;;;;;;5021989;28;20742;-36
2022/03/21 10:23:16;;;;;;;17.37;11.07;;;;;;;;;;5019004;28;20167;-36
2022/03/21 10:25:42;;;;;;;15.33;10.17;;;;;;;;;;5019771;28;20176;-37
2022/03/21 10:28:08;;;;;;;13.80;10.47;;;;;;;;;;5018062;28;20604;-36
2022/03/21 10:30:42;;;;;;;15.13;10.40;;;;;;;;;;4995827;28;20177;-36
2022/03/21 10:33:08;;;;;;;17.17;10.93;;;;;;;;;;4945479;28;1107625;-36
2022/03/21 10:35:44;;;;;;;13.37;9.70;;;;;;;;;;4997447;28;20796;-37
2022/03/21 10:38:10;;;;;;;16.37;10.70;;;;;;;;;;4998149;28;20320;-36
2022/03/21 10:40:47;;;;;;;17.17;11.80;;;;;;;;;;4998302;28;20211;-35
2022/03/21 10:43:18;;;;;;;15.20;10.70;;;;;;;;;;4995923;28;20295;-36
2022/03/21 10:45:47;;;;;;;16.70;11.37;;;;;;;;;;4993780;28;20204;-36
2022/03/21 10:48:13;;;;;;;18.40;11.40;;;;;;;;;;4998993;28;20272;-36
2022/03/21 10:50:41;;;;;;;16.37;11.03;;;;;;;;;;4996569;28;20180;-36
2022/03/21 10:53:11;;;;;;;17.83;11.53;;;;;;;;;;4992430;28;20748;-36
2022/03/21 10:55:39;;;;;;;15.17;11.17;;;;;;;;;;4992028;28;20291;-35
2022/03/21 10:58:06;;;;;;;18.43;11.50;;;;;;;;;;4997082;28;20197;-36
2022/03/21 11:00:32;;;;;;;18.53;11.93;;;;;;;;;;4997586;28;20598;-35
2022/03/21 11:03:09;;;;;;;18.00;10.70;;;;;;;;;;4996723;28;20319;-36
2022/03/21 11:05:40;;;;;;;20.30;11.57;;;;;;;;;;4996520;28;20179;-35
2022/03/21 11:08:07;;;;;;;16.83;10.87;;;;;;;;;;5000815;28;20184;-35
2022/03/21 11:10:33;;;;;;;15.30;11.20;;;;;;;;;;4999737;28;20176;-36
2022/03/21 11:13:04;;;;;;;19.60;11.20;;;;;;;;;;4994224;28;20720;-35
2022/03/21 11:15:31;;;;;;;14.97;10.10;;;;;;;;;;4995025;28;20365;-36
2022/03/21 11:17:57;;;;;;;13.97;9.53;;;;;;;;;;4996004;28;20200;-35
2022/03/21 11:20:24;;;;;;;15.57;9.43;;;;;;;;;;4995867;28;20176;-35
2022/03/21 11:22:52;;;;;;;13.40;10.17;;;;;;;;;;4997588;28;20267;-35
2022/03/21 11:25:19;;;;;;;14.37;9.63;;;;;;;;;;4974440;28;20189;-35
2022/03/21 11:27:51;;;;;;;14.63;8.63;;;;;;;;;;4995328;28;20648;-35
2022/03/21 11:30:17;;;;;;;12.27;9.47;;;;;;;;;;4998679;28;20619;-35
2022/03/21 11:32:43;;;;;;;14.07;9.20;;;;;;;;;;4999037;28;20329;-35
2022/03/21 11:35:17;;;;;;;13.27;8.30;;;;;;;;;;4996607;28;20449;-35
2022/03/21 11:37:44;;;;;;;12.40;9.40;;;;;;;;;;5000791;28;20262;-35
2022/03/21 11:40:29;;;;;;;12.37;9.00;;;;;;;;;;4991467;28;20192;-35
2022/03/21 11:43:18;;;;;;;14.93;8.87;;;;;;;;;;4996846;28;20727;-37
2022/03/21 11:45:45;;;;;;;13.43;8.97;;;;;;;;;;4985211;28;20207;-37
2022/03/21 11:48:22;;;;;;;13.17;9.20;;;;;;;;;;5021321;28;20187;-39
2022/03/21 11:50:48;;;;;;;12.30;8.60;;;;;;;;;;5021933;28;20257;-37
2022/03/21 11:53:15;;;;;;;10.77;8.20;;;;;;;;;;5021626;28;20543;-37
2022/03/21 11:55:42;;;;;;;13.77;9.13;;;;;;;;;;5023951;28;20167;-37
2022/03/21 11:58:23;;;;;;;15.20;9.17;;;;;;;;;;5024385;28;20596;-37
2022/03/21 12:01:05;;;;;;;12.50;9.17;;;;;;;;;;5022860;28;20505;-37
2022/03/21 12:03:31;;;;;;;12.93;8.97;;;;;;;;;;5023016;28;20167;-37
2022/03/21 12:05:57;;;;;;;14.57;8.73;;;;;;;;;;5024796;28;20500;-37
2022/03/21 12:08:32;;;;;;;12.83;9.57;;;;;;;;;;5023766;28;20187;-37
2022/03/21 12:10:58;;;;;;;13.50;9.10;;;;;;;;;;5012952;28;20256;-37
2022/03/21 12:13:24;;;;;;;14.33;9.77;;;;;;;;;;4915547;28;20781;-38
2022/03/21 12:15:51;;;;;;;11.50;9.00;;;;;;;;;;4930999;28;20209;-37
2022/03/21 12:18:20;;;;;;;17.90;10.00;;;;;;;;;;4979074;28;20266;-37
2022/03/21 12:20:49;;;;;;;13.50;9.50;;;;;;;;;;4998789;28;20848;-37
2022/03/21 12:23:19;;;;;;;15.07;9.60;;;;;;;;;;5009328;28;20249;-36
2022/03/21 12:25:47;;;;;;;14.70;9.40;;;;;;;;;;5025317;28;20252;-37
2022/03/21 12:28:21;;;;;;;15.33;9.70;;;;;;;;;;5025261;28;20182;-37
2022/03/21 12:30:48;;;;;;;13.17;9.97;;;;;;;;;;5028939;28;20232;-38
2022/03/21 12:33:14;;;;;;;17.57;9.97;;;;;;;;;;5029599;28;20211;-37
2022/03/21 12:35:45;;;;;;;13.00;9.50;;;;;;;;;;5027419;28;20175;-37
2022/03/21 12:38:16;;;;;;;11.93;9.17;;;;;;;;;;5009362;28;20187;-38
2022/03/21 12:40:52;;;;;;;13.40;9.93;;;;;;;;;;5020975;28;20183;-38
2022/03/21 12:43:20;;;;;;;12.30;9.37;;;;;;;;;;5024968;28;20183;-39
2022/03/21 12:45:49;;;;;;;12.10;9.13;;;;;;;;;;5027406;28;20215;-39
2022/03/21 12:48:19;;;;;;;15.07;10.03;;;;;;;;;;5031052;28;20178;-40
2022/03/21 12:50:49;;;;;;;12.83;9.60;;;;;;;;;;5009578;28;20176;-39
2022/03/21 12:53:21;;;;;;;13.97;10.33;;;;;;;;;;4977050;28;20259;-39
2022/03/21 12:56:00;;;;;;;12.17;9.43;;;;;;;;;;5013378;28;20216;-39
2022/03/21 12:58:26;;;;;;;12.67;9.60;;;;;;;;;;5005152;28;20283;-39
2022/03/21 13:00:55;;;;;;;13.43;10.30;;;;;;;;;;4997211;28;20208;-38
2022/03/21 13:03:22;;;;;;;15.40;10.50;;;;;;;;;;5001972;28;20176;-39
2022/03/21 13:11:26;;;;;;;14.37;9.47;;;;;;;;;;5004912;28;20191;-39
2022/03/21 13:13:53;;;;;;;11.67;9.40;;;;;;;;;;5007570;28;20184;-39
2022/03/21 13:16:27;;;;;;;11.73;9.43;;;;;;;;;;5004828;28;20626;-39
2022/03/21 13:18:54;;;;;;;12.73;9.53;;;;;;;;;;5007351;28;21147;-39
2022/03/21 13:21:21;;;;;;;12.50;9.43;;;;;;;;;;5006008;28;20907;-40
2022/03/21 13:23:50;;;;;;;15.30;9.47;;;;;;;;;;5023003;28;20789;-38
2022/03/21 13:26:23;;;;;;;14.43;10.13;;;;;;;;;;4988078;28;20225;-39
2022/03/21 13:28:50;;;;;;;13.90;9.60;;;;;;;;;;5030491;28;20368;-39
2022/03/21 13:31:23;;;;;;;17.77;10.17;;;;;;;;;;5031661;28;20168;-40
2022/03/21 13:34:16;;;;;;;13.33;9.63;;;;;;;;;;5028923;28;20758;-39
2022/03/21 13:36:46;;;;;;;14.37;10.10;;;;;;;;;;5024278;28;20353;-39
2022/03/21 13:39:26;;;;;;;15.13;8.97;;;;;;;;;;5022705;28;20228;-38
2022/03/21 13:41:55;;;;;;;16.70;9.50;;;;;;;;;;5023067;28;20711;-39
2022/03/21 13:44:23;;;;;;;13.30;9.87;;;;;;;;;;5022819;28;20183;-39
2022/03/21 13:47:22;;;;;;;11.60;9.30;;;;;;;;;;5021060;28;20306;-39
2022/03/21 13:49:54;;;;;;;12.40;9.10;;;;;;;;;;4979278;28;20709;-39
2022/03/21 13:52:41;;;;;;;11.60;9.27;;;;;;;;;;5004432;28;21219;-39
2022/03/21 13:55:07;;;;;;;12.63;9.00;;;;;;;;;;5020056;28;20202;-39
2022/03/21 13:57:49;;;;;;;11.53;8.40;;;;;;;;;;5002680;28;20487;-38
2022/03/21 14:00:17;;;;;;;13.63;9.60;;;;;;;;;;5020237;28;20525;-38
2022/03/21 14:02:47;;;;;;;13.13;9.53;;;;;;;;;;5021170;28;20179;-38
2022/03/21 14:05:14;;;;;;;14.97;10.37;;;;;;;;;;5025818;28;20256;-38
2022/03/21 14:07:43;;;;;;;14.37;9.57;;;;;;;;;;5023614;28;20572;-38
2022/03/21 14:10:15;;;;;;;13.70;9.90;;;;;;;;;;5024812;28;20916;-38
2022/03/21 14:12:42;;;;;;;12.80;9.33;;;;;;;;;;5004019;28;20599;-39
2022/03/21 14:15:09;;;;;;;13.00;9.30;;;;;;;;;;5023404;28;20179;-38
2022/03/21 14:17:35;;;;;;;11.83;9.73;;;;;;;;;;5025983;28;20310;-38
2022/03/21 14:20:01;;;;;;;13.77;9.50;;;;;;;;;;5022953;28;20184;-37
2022/03/21 14:22:28;;;;;;;16.43;10.00;;;;;;;;;;5014136;28;20627;-37
2022/03/21 14:24:54;;;;;;;11.93;9.37;;;;;;;;;;5002218;28;20175;-37
2022/03/21 14:27:20;;;;;;;13.90;10.03;;;;;;;;;;5002527;28;20190;-36
2022/03/21 14:29:47;;;;;;;13.70;9.20;;;;;;;;;;5024488;28;20190;-37
2022/03/21 14:32:13;;;;;;;12.97;9.83;;;;;;;;;;5001216;28;20477;-37
2022/03/21 14:34:39;;;;;;;11.60;9.60;;;;;;;;;;4996704;28;20855;-36
2022/03/21 14:37:05;;;;;;;12.50;9.30;;;;;;;;;;5021873;28;20175;-37
2022/03/21 14:39:32;;;;;;;12.97;9.57;;;;;;;;;;5004068;28;20183;-37
2022/03/21 14:41:58;;;;;;;11.50;9.23;;;;;;;;;;4994921;28;20175;-37
2022/03/21 14:44:25;;;;;;;13.43;9.57;;;;;;;;;;4996015;28;20176;-38